sensor_id;sensor_type;location;lat;lon;timestamp;temperature;humidity
33023;DHT22;19390;51.460;5.710;2023-07-20T00:00:25;17.00;99.90
33023;DHT22;19390;51.460;5.710;2023-07-20T00:02:51;17.00;99.90
33023;DHT22;19390;51.460;5.710;2023-07-20T00:05:17;16.90;99.90
33023;DHT22;19390;51.460;5.710;2023-07-20T00:07:44;16.90;99.90
33023;DHT22;19390;51.460;5.710;2023-07-20T00:10:09;16.80;99.90
33023;DHT22;19390;51.460;5.710;2023-07-20T00:12:35;16.70;99.90
33023;DHT22;19390;51.460;5.710;2023-07-20T00:15:01;16.60;99.90
33023;DHT22;19390;51.460;5.710;2023-07-20T00:17:26;16.60;99.90
33023;DHT22;19390;51.460;5.710;2023-07-20T00:19:52;16.60;99.90
33023;DHT22;19390;51.460;5.710;2023-07-20T00:22:17;16.50;99.90
33023;DHT22;19390;51.460;5.710;2023-07-20T00:24:43;16.50;99.90
33023;DHT22;19390;51.460;5.710;2023-07-20T00:27:08;16.40;99.90
33023;DHT22;19390;51.460;5.710;2023-07-20T00:29:34;16.30;99.90
33023;DHT22;19390;51.460;5.710;2023-07-20T00:32:00;16.10;99.90
33023;DHT22;19390;51.460;5.710;2023-07-20T00:34:26;16.10;99.90
33023;DHT22;19390;51.460;5.710;2023-07-20T00:36:52;16.20;99.90
33023;DHT22;19390;51.460;5.710;2023-07-20T00:39:17;16.20;99.90
33023;DHT22;19390;51.460;5.710;2023-07-20T00:41:43;16.20;99.90
33023;DHT22;19390;51.460;5.710;2023-07-20T00:44:08;16.20;99.90
33023;DHT22;19390;51.460;5.710;2023-07-20T00:46:34;16.10;99.90
33023;DHT22;19390;51.460;5.710;2023-07-20T00:49:00;16.10;99.90
33023;DHT22;19390;51.460;5.710;2023-07-20T00:51:26;16.40;99.90
33023;DHT22;19390;51.460;5.710;2023-07-20T00:53:53;16.50;99.90
33023;DHT22;19390;51.460;5.710;2023-07-20T00:56:19;16.40;99.90
33023;DHT22;19390;51.460;5.710;2023-07-20T00:58:45;16.30;99.90
33023;DHT22;19390;51.460;5.710;2023-07-20T01:01:11;16.10;99.90
33023;DHT22;19390;51.460;5.710;2023-07-20T01:03:37;16.00;99.90
33023;DHT22;19390;51.460;5.710;2023-07-20T01:06:18;15.90;99.90
33023;DHT22;19390;51.460;5.710;2023-07-20T01:08:58;16.10;99.90
33023;DHT22;19390;51.460;5.710;2023-07-20T01:11:48;16.10;99.90
33023;DHT22;19390;51.460;5.710;2023-07-20T01:14:15;15.90;99.90
33023;DHT22;19390;51.460;5.710;2023-07-20T01:16:42;15.80;99.90
33023;DHT22;19390;51.460;5.710;2023-07-20T01:19:07;15.90;99.90
33023;DHT22;19390;51.460;5.710;2023-07-20T01:21:48;15.80;99.90
33023;DHT22;19390;51.460;5.710;2023-07-20T01:32:19;15.90;99.90
33023;DHT22;19390;51.460;5.710;2023-07-20T01:34:48;15.90;99.90
33023;DHT22;19390;51.460;5.710;2023-07-20T01:37:15;16.00;99.90
33023;DHT22;19390;51.460;5.710;2023-07-20T01:39:42;15.90;99.90
33023;DHT22;19390;51.460;5.710;2023-07-20T01:42:08;15.80;99.90
33023;DHT22;19390;51.460;5.710;2023-07-20T01:44:34;15.70;99.90
33023;DHT22;19390;51.460;5.710;2023-07-20T01:46:59;15.80;99.90
33023;DHT22;19390;51.460;5.710;2023-07-20T01:49:25;15.80;99.90
33023;DHT22;19390;51.460;5.710;2023-07-20T01:51:50;15.80;99.90
33023;DHT22;19390;51.460;5.710;2023-07-20T01:54:16;16.00;99.90
33023;DHT22;19390;51.460;5.710;2023-07-20T01:56:42;16.00;99.90
33023;DHT22;19390;51.460;5.710;2023-07-20T01:59:07;16.00;99.90
33023;DHT22;19390;51.460;5.710;2023-07-20T02:01:33;16.10;99.90
33023;DHT22;19390;51.460;5.710;2023-07-20T02:03:59;16.10;99.90
33023;DHT22;19390;51.460;5.710;2023-07-20T02:06:24;16.20;99.90
33023;DHT22;19390;51.460;5.710;2023-07-20T02:08:50;16.20;99.90
33023;DHT22;19390;51.460;5.710;2023-07-20T02:11:15;16.30;99.90
33023;DHT22;19390;51.460;5.710;2023-07-20T02:13:41;16.30;99.90
33023;DHT22;19390;51.460;5.710;2023-07-20T02:16:07;16.40;99.90
33023;DHT22;19390;51.460;5.710;2023-07-20T02:18:32;16.40;99.90
33023;DHT22;19390;51.460;5.710;2023-07-20T02:20:58;16.40;99.90
33023;DHT22;19390;51.460;5.710;2023-07-20T02:23:24;16.30;99.90
33023;DHT22;19390;51.460;5.710;2023-07-20T02:25:50;16.30;99.90
33023;DHT22;19390;51.460;5.710;2023-07-20T02:28:15;16.40;99.90
33023;DHT22;19390;51.460;5.710;2023-07-20T02:30:41;16.40;99.90
33023;DHT22;19390;51.460;5.710;2023-07-20T02:33:07;16.40;99.90
33023;DHT22;19390;51.460;5.710;2023-07-20T02:35:33;16.40;99.90
33023;DHT22;19390;51.460;5.710;2023-07-20T02:37:58;16.40;99.90
33023;DHT22;19390;51.460;5.710;2023-07-20T02:40:24;16.40;99.90
33023;DHT22;19390;51.460;5.710;2023-07-20T02:42:49;16.40;99.90
33023;DHT22;19390;51.460;5.710;2023-07-20T02:45:15;16.40;99.90
33023;DHT22;19390;51.460;5.710;2023-07-20T02:47:42;16.40;99.90
33023;DHT22;19390;51.460;5.710;2023-07-20T02:50:08;16.50;99.90
33023;DHT22;19390;51.460;5.710;2023-07-20T02:52:33;16.60;99.90
33023;DHT22;19390;51.460;5.710;2023-07-20T02:54:59;16.60;99.90
33023;DHT22;19390;51.460;5.710;2023-07-20T02:57:25;16.70;99.90
33023;DHT22;19390;51.460;5.710;2023-07-20T02:59:50;16.70;99.90
33023;DHT22;19390;51.460;5.710;2023-07-20T03:02:16;16.70;99.90
33023;DHT22;19390;51.460;5.710;2023-07-20T03:04:42;16.70;99.90
33023;DHT22;19390;51.460;5.710;2023-07-20T03:07:07;16.70;99.90
33023;DHT22;19390;51.460;5.710;2023-07-20T03:09:33;16.70;99.90
33023;DHT22;19390;51.460;5.710;2023-07-20T03:11:59;16.70;99.90
33023;DHT22;19390;51.460;5.710;2023-07-20T03:14:25;16.60;99.90
33023;DHT22;19390;51.460;5.710;2023-07-20T03:16:50;16.60;99.90
33023;DHT22;19390;51.460;5.710;2023-07-20T03:19:16;16.50;99.90
33023;DHT22;19390;51.460;5.710;2023-07-20T03:21:41;16.50;99.90
33023;DHT22;19390;51.460;5.710;2023-07-20T03:24:08;16.50;99.90
33023;DHT22;19390;51.460;5.710;2023-07-20T03:26:34;16.60;99.90
33023;DHT22;19390;51.460;5.710;2023-07-20T03:29:00;16.70;99.90
33023;DHT22;19390;51.460;5.710;2023-07-20T03:31:26;16.70;99.90
33023;DHT22;19390;51.460;5.710;2023-07-20T03:33:52;16.60;99.90
33023;DHT22;19390;51.460;5.710;2023-07-20T03:36:17;16.60;99.90
33023;DHT22;19390;51.460;5.710;2023-07-20T03:38:43;16.60;99.90
33023;DHT22;19390;51.460;5.710;2023-07-20T03:41:09;16.60;99.90
33023;DHT22;19390;51.460;5.710;2023-07-20T03:43:34;16.60;99.90
33023;DHT22;19390;51.460;5.710;2023-07-20T03:46:00;16.50;99.90
33023;DHT22;19390;51.460;5.710;2023-07-20T03:48:26;16.50;99.90
33023;DHT22;19390;51.460;5.710;2023-07-20T03:50:52;16.50;99.90
33023;DHT22;19390;51.460;5.710;2023-07-20T03:53:19;16.50;99.90
33023;DHT22;19390;51.460;5.710;2023-07-20T03:55:48;16.50;99.90
33023;DHT22;19390;51.460;5.710;2023-07-20T03:58:14;16.50;99.90
33023;DHT22;19390;51.460;5.710;2023-07-20T04:00:44;16.40;99.90
33023;DHT22;19390;51.460;5.710;2023-07-20T04:03:10;16.40;99.90
33023;DHT22;19390;51.460;5.710;2023-07-20T04:05:35;16.50;99.90
33023;DHT22;19390;51.460;5.710;2023-07-20T04:08:01;16.40;99.90
33023;DHT22;19390;51.460;5.710;2023-07-20T04:10:26;16.40;99.90
33023;DHT22;19390;51.460;5.710;2023-07-20T04:12:52;16.40;99.90
33023;DHT22;19390;51.460;5.710;2023-07-20T04:15:18;16.40;99.90
33023;DHT22;19390;51.460;5.710;2023-07-20T04:17:45;16.40;99.90
33023;DHT22;19390;51.460;5.710;2023-07-20T04:20:10;16.40;99.90
33023;DHT22;19390;51.460;5.710;2023-07-20T04:22:36;16.40;99.90
33023;DHT22;19390;51.460;5.710;2023-07-20T04:25:02;16.40;99.90
33023;DHT22;19390;51.460;5.710;2023-07-20T04:27:28;16.30;99.90
33023;DHT22;19390;51.460;5.710;2023-07-20T04:29:53;16.20;99.90
33023;DHT22;19390;51.460;5.710;2023-07-20T04:32:19;16.10;99.90
33023;DHT22;19390;51.460;5.710;2023-07-20T04:34:45;16.00;99.90
33023;DHT22;19390;51.460;5.710;2023-07-20T04:37:10;15.90;99.90
33023;DHT22;19390;51.460;5.710;2023-07-20T04:39:36;15.90;99.90
33023;DHT22;19390;51.460;5.710;2023-07-20T04:42:01;15.90;99.90
33023;DHT22;19390;51.460;5.710;2023-07-20T04:44:27;15.80;99.90
33023;DHT22;19390;51.460;5.710;2023-07-20T04:46:52;15.90;99.90
33023;DHT22;19390;51.460;5.710;2023-07-20T04:49:18;15.90;99.90
33023;DHT22;19390;51.460;5.710;2023-07-20T04:51:44;16.00;99.90
33023;DHT22;19390;51.460;5.710;2023-07-20T04:54:10;16.00;99.90
33023;DHT22;19390;51.460;5.710;2023-07-20T04:56:36;16.00;99.90
33023;DHT22;19390;51.460;5.710;2023-07-20T04:59:01;16.10;99.90
33023;DHT22;19390;51.460;5.710;2023-07-20T05:01:27;16.20;99.90
33023;DHT22;19390;51.460;5.710;2023-07-20T05:03:53;16.20;99.90
33023;DHT22;19390;51.460;5.710;2023-07-20T05:06:19;16.20;99.90
33023;DHT22;19390;51.460;5.710;2023-07-20T05:08:44;16.30;99.90
33023;DHT22;19390;51.460;5.710;2023-07-20T05:11:10;16.40;99.90
33023;DHT22;19390;51.460;5.710;2023-07-20T05:13:36;16.60;99.90
33023;DHT22;19390;51.460;5.710;2023-07-20T05:16:02;16.90;99.90
33023;DHT22;19390;51.460;5.710;2023-07-20T05:18:27;19.40;99.90
33023;DHT22;19390;51.460;5.710;2023-07-20T05:20:53;19.70;99.90
33023;DHT22;19390;51.460;5.710;2023-07-20T05:23:20;20.00;99.90
33023;DHT22;19390;51.460;5.710;2023-07-20T05:25:46;20.80;99.90
33023;DHT22;19390;51.460;5.710;2023-07-20T05:28:12;21.00;99.90
33023;DHT22;19390;51.460;5.710;2023-07-20T05:30:37;21.70;99.90
33023;DHT22;19390;51.460;5.710;2023-07-20T05:33:03;20.80;99.90
33023;DHT22;19390;51.460;5.710;2023-07-20T05:35:29;22.20;99.90
33023;DHT22;19390;51.460;5.710;2023-07-20T05:37:54;21.80;99.90
33023;DHT22;19390;51.460;5.710;2023-07-20T05:40:20;21.50;99.90
33023;DHT22;19390;51.460;5.710;2023-07-20T05:42:47;22.10;99.90
33023;DHT22;19390;51.460;5.710;2023-07-20T05:45:14;22.50;99.90
33023;DHT22;19390;51.460;5.710;2023-07-20T05:47:41;23.50;99.90
33023;DHT22;19390;51.460;5.710;2023-07-20T05:50:07;22.50;99.90
33023;DHT22;19390;51.460;5.710;2023-07-20T05:52:33;21.50;99.90
33023;DHT22;19390;51.460;5.710;2023-07-20T05:54:58;22.60;99.90
33023;DHT22;19390;51.460;5.710;2023-07-20T05:57:24;25.00;99.90
33023;DHT22;19390;51.460;5.710;2023-07-20T05:59:50;23.60;99.90
33023;DHT22;19390;51.460;5.710;2023-07-20T06:02:16;23.10;99.90
33023;DHT22;19390;51.460;5.710;2023-07-20T06:04:42;25.40;99.90
33023;DHT22;19390;51.460;5.710;2023-07-20T06:07:07;25.10;99.90
33023;DHT22;19390;51.460;5.710;2023-07-20T06:09:33;26.30;99.90
33023;DHT22;19390;51.460;5.710;2023-07-20T06:11:59;27.30;99.90
33023;DHT22;19390;51.460;5.710;2023-07-20T06:14:24;27.00;99.90
33023;DHT22;19390;51.460;5.710;2023-07-20T06:16:50;27.60;99.90
33023;DHT22;19390;51.460;5.710;2023-07-20T06:19:15;26.60;99.90
33023;DHT22;19390;51.460;5.710;2023-07-20T06:21:41;27.90;99.90
33023;DHT22;19390;51.460;5.710;2023-07-20T06:24:07;27.50;99.90
33023;DHT22;19390;51.460;5.710;2023-07-20T06:26:33;25.00;99.90
33023;DHT22;19390;51.460;5.710;2023-07-20T06:29:05;27.00;99.90
33023;DHT22;19390;51.460;5.710;2023-07-20T06:31:31;23.50;99.90
33023;DHT22;19390;51.460;5.710;2023-07-20T06:33:57;20.80;99.90
33023;DHT22;19390;51.460;5.710;2023-07-20T06:36:23;19.30;99.90
33023;DHT22;19390;51.460;5.710;2023-07-20T06:38:48;19.10;99.90
33023;DHT22;19390;51.460;5.710;2023-07-20T06:41:14;18.70;99.90
33023;DHT22;19390;51.460;5.710;2023-07-20T06:43:39;18.30;99.90
33023;DHT22;19390;51.460;5.710;2023-07-20T06:46:05;18.20;99.90
33023;DHT22;19390;51.460;5.710;2023-07-20T06:48:30;18.00;99.90
33023;DHT22;19390;51.460;5.710;2023-07-20T06:50:56;19.00;99.90
33023;DHT22;19390;51.460;5.710;2023-07-20T06:53:22;23.80;99.90
33023;DHT22;19390;51.460;5.710;2023-07-20T06:55:47;21.50;99.90
33023;DHT22;19390;51.460;5.710;2023-07-20T06:58:13;24.50;99.90
33023;DHT22;19390;51.460;5.710;2023-07-20T07:00:39;25.10;99.90
33023;DHT22;19390;51.460;5.710;2023-07-20T07:03:04;28.40;99.90
33023;DHT22;19390;51.460;5.710;2023-07-20T07:05:30;24.80;99.90
33023;DHT22;19390;51.460;5.710;2023-07-20T07:07:56;27.60;99.90
33023;DHT22;19390;51.460;5.710;2023-07-20T07:10:21;29.30;99.90
33023;DHT22;19390;51.460;5.710;2023-07-20T07:12:47;30.00;99.90
33023;DHT22;19390;51.460;5.710;2023-07-20T07:15:12;28.00;99.90
33023;DHT22;19390;51.460;5.710;2023-07-20T07:17:38;25.60;99.90
33023;DHT22;19390;51.460;5.710;2023-07-20T07:20:05;25.50;99.90
33023;DHT22;19390;51.460;5.710;2023-07-20T07:22:30;24.30;99.90
33023;DHT22;19390;51.460;5.710;2023-07-20T07:24:56;24.90;99.90
33023;DHT22;19390;51.460;5.710;2023-07-20T07:27:22;25.20;99.90
33023;DHT22;19390;51.460;5.710;2023-07-20T07:29:47;25.90;99.90
33023;DHT22;19390;51.460;5.710;2023-07-20T07:32:13;25.50;99.90
33023;DHT22;19390;51.460;5.710;2023-07-20T07:34:39;28.70;99.90
33023;DHT22;19390;51.460;5.710;2023-07-20T07:37:05;29.90;99.90
33023;DHT22;19390;51.460;5.710;2023-07-20T07:39:30;26.10;99.90
33023;DHT22;19390;51.460;5.710;2023-07-20T07:41:56;27.50;99.90
33023;DHT22;19390;51.460;5.710;2023-07-20T07:44:22;23.90;99.90
33023;DHT22;19390;51.460;5.710;2023-07-20T07:46:48;21.70;99.90
33023;DHT22;19390;51.460;5.710;2023-07-20T07:49:14;21.20;99.90
33023;DHT22;19390;51.460;5.710;2023-07-20T07:51:40;20.90;99.90
33023;DHT22;19390;51.460;5.710;2023-07-20T07:54:06;20.50;99.90
33023;DHT22;19390;51.460;5.710;2023-07-20T07:56:31;20.70;99.90
33023;DHT22;19390;51.460;5.710;2023-07-20T07:58:57;20.70;99.90
33023;DHT22;19390;51.460;5.710;2023-07-20T08:01:22;20.80;99.90
33023;DHT22;19390;51.460;5.710;2023-07-20T08:03:48;20.40;99.90
33023;DHT22;19390;51.460;5.710;2023-07-20T08:06:14;20.40;99.90
33023;DHT22;19390;51.460;5.710;2023-07-20T08:08:40;20.30;99.90
33023;DHT22;19390;51.460;5.710;2023-07-20T08:11:06;20.30;99.90
33023;DHT22;19390;51.460;5.710;2023-07-20T08:13:31;20.70;99.90
33023;DHT22;19390;51.460;5.710;2023-07-20T08:15:58;24.20;99.90
33023;DHT22;19390;51.460;5.710;2023-07-20T08:18:24;26.20;99.90
33023;DHT22;19390;51.460;5.710;2023-07-20T08:20:49;24.90;99.90
33023;DHT22;19390;51.460;5.710;2023-07-20T08:23:15;24.20;99.90
33023;DHT22;19390;51.460;5.710;2023-07-20T08:25:41;26.50;99.90
33023;DHT22;19390;51.460;5.710;2023-07-20T08:28:16;30.90;99.90
33023;DHT22;19390;51.460;5.710;2023-07-20T08:30:47;30.50;99.90
33023;DHT22;19390;51.460;5.710;2023-07-20T08:33:14;32.10;99.90
33023;DHT22;19390;51.460;5.710;2023-07-20T08:35:39;32.00;99.90
33023;DHT22;19390;51.460;5.710;2023-07-20T08:38:05;30.70;99.90
33023;DHT22;19390;51.460;5.710;2023-07-20T08:40:39;33.00;99.90
33023;DHT22;19390;51.460;5.710;2023-07-20T08:43:05;33.50;99.90
33023;DHT22;19390;51.460;5.710;2023-07-20T08:45:33;29.60;99.90
33023;DHT22;19390;51.460;5.710;2023-07-20T08:48:00;29.30;99.90
33023;DHT22;19390;51.460;5.710;2023-07-20T08:50:28;24.80;99.90
33023;DHT22;19390;51.460;5.710;2023-07-20T08:52:57;29.30;99.90
33023;DHT22;19390;51.460;5.710;2023-07-20T08:55:24;25.60;99.90
33023;DHT22;19390;51.460;5.710;2023-07-20T08:57:53;26.10;99.90
33023;DHT22;19390;51.460;5.710;2023-07-20T09:00:20;24.50;99.90
33023;DHT22;19390;51.460;5.710;2023-07-20T09:02:46;28.70;99.90
33023;DHT22;19390;51.460;5.710;2023-07-20T09:05:12;31.80;99.90
33023;DHT22;19390;51.460;5.710;2023-07-20T09:07:40;32.10;99.90
33023;DHT22;19390;51.460;5.710;2023-07-20T09:10:07;33.10;99.90
33023;DHT22;19390;51.460;5.710;2023-07-20T09:12:36;33.30;99.90
33023;DHT22;19390;51.460;5.710;2023-07-20T09:15:02;28.80;99.90
33023;DHT22;19390;51.460;5.710;2023-07-20T09:17:28;25.40;99.90
33023;DHT22;19390;51.460;5.710;2023-07-20T09:19:53;24.20;99.90
33023;DHT22;19390;51.460;5.710;2023-07-20T09:22:20;24.10;99.90
33023;DHT22;19390;51.460;5.710;2023-07-20T09:24:45;23.90;99.90
33023;DHT22;19390;51.460;5.710;2023-07-20T09:27:11;23.80;99.90
33023;DHT22;19390;51.460;5.710;2023-07-20T09:29:51;23.70;99.90
33023;DHT22;19390;51.460;5.710;2023-07-20T09:32:20;26.50;99.90
33023;DHT22;19390;51.460;5.710;2023-07-20T09:34:47;31.30;99.90
33023;DHT22;19390;51.460;5.710;2023-07-20T09:37:12;30.40;99.90
33023;DHT22;19390;51.460;5.710;2023-07-20T09:39:47;29.60;99.90
33023;DHT22;19390;51.460;5.710;2023-07-20T09:42:15;31.40;99.90
33023;DHT22;19390;51.460;5.710;2023-07-20T09:44:43;33.70;99.90
33023;DHT22;19390;51.460;5.710;2023-07-20T09:47:09;34.90;99.90
33023;DHT22;19390;51.460;5.710;2023-07-20T09:49:41;31.20;99.90
33023;DHT22;19390;51.460;5.710;2023-07-20T09:52:08;32.30;99.90
33023;DHT22;19390;51.460;5.710;2023-07-20T09:54:34;34.30;99.90
33023;DHT22;19390;51.460;5.710;2023-07-20T09:57:00;33.30;99.90
33023;DHT22;19390;51.460;5.710;2023-07-20T09:59:27;32.30;99.90
33023;DHT22;19390;51.460;5.710;2023-07-20T10:01:53;30.50;99.90
33023;DHT22;19390;51.460;5.710;2023-07-20T10:04:23;27.20;99.90
33023;DHT22;19390;51.460;5.710;2023-07-20T10:06:50;26.20;99.90
33023;DHT22;19390;51.460;5.710;2023-07-20T10:09:18;25.40;99.90
33023;DHT22;19390;51.460;5.710;2023-07-20T10:11:50;25.40;99.90
33023;DHT22;19390;51.460;5.710;2023-07-20T10:14:20;27.40;99.90
33023;DHT22;19390;51.460;5.710;2023-07-20T10:16:55;30.50;99.90
33023;DHT22;19390;51.460;5.710;2023-07-20T10:19:27;31.10;99.90
33023;DHT22;19390;51.460;5.710;2023-07-20T10:22:00;30.00;99.90
33023;DHT22;19390;51.460;5.710;2023-07-20T10:24:28;27.80;99.90
33023;DHT22;19390;51.460;5.710;2023-07-20T10:26:54;26.00;99.90
33023;DHT22;19390;51.460;5.710;2023-07-20T10:29:21;28.60;99.90
33023;DHT22;19390;51.460;5.710;2023-07-20T10:31:47;28.00;99.90
33023;DHT22;19390;51.460;5.710;2023-07-20T10:34:13;26.80;99.90
33023;DHT22;19390;51.460;5.710;2023-07-20T10:36:45;25.60;99.90
33023;DHT22;19390;51.460;5.710;2023-07-20T10:39:24;24.90;99.90
33023;DHT22;19390;51.460;5.710;2023-07-20T10:42:00;24.90;99.90
33023;DHT22;19390;51.460;5.710;2023-07-20T10:44:27;28.70;99.90
33023;DHT22;19390;51.460;5.710;2023-07-20T10:47:02;29.90;99.90
33023;DHT22;19390;51.460;5.710;2023-07-20T10:49:28;31.70;99.90
33023;DHT22;19390;51.460;5.710;2023-07-20T10:51:59;33.80;99.90
33023;DHT22;19390;51.460;5.710;2023-07-20T10:56:56;32.00;99.90
33023;DHT22;19390;51.460;5.710;2023-07-20T11:01:54;35.70;99.90
33023;DHT22;19390;51.460;5.710;2023-07-20T11:04:38;34.20;99.90
33023;DHT22;19390;51.460;5.710;2023-07-20T11:07:04;32.40;99.90
33023;DHT22;19390;51.460;5.710;2023-07-20T11:09:34;29.20;99.90
33023;DHT22;19390;51.460;5.710;2023-07-20T11:12:14;32.20;99.90
33023;DHT22;19390;51.460;5.710;2023-07-20T11:14:53;31.00;99.90
33023;DHT22;19390;51.460;5.710;2023-07-20T11:17:19;32.60;99.90
33023;DHT22;19390;51.460;5.710;2023-07-20T11:19:55;29.00;99.90
33023;DHT22;19390;51.460;5.710;2023-07-20T11:22:21;27.60;99.90
33023;DHT22;19390;51.460;5.710;2023-07-20T11:24:47;32.80;99.90
33023;DHT22;19390;51.460;5.710;2023-07-20T11:27:14;32.60;99.90
33023;DHT22;19390;51.460;5.710;2023-07-20T11:29:40;33.70;99.90
33023;DHT22;19390;51.460;5.710;2023-07-20T11:32:06;32.60;99.90
33023;DHT22;19390;51.460;5.710;2023-07-20T11:34:32;33.00;99.90
33023;DHT22;19390;51.460;5.710;2023-07-20T11:36:58;35.60;99.90
33023;DHT22;19390;51.460;5.710;2023-07-20T11:39:25;35.90;99.90
33023;DHT22;19390;51.460;5.710;2023-07-20T11:41:52;33.90;99.90
33023;DHT22;19390;51.460;5.710;2023-07-20T11:44:24;31.50;99.90
33023;DHT22;19390;51.460;5.710;2023-07-20T11:47:09;30.00;99.90
33023;DHT22;19390;51.460;5.710;2023-07-20T11:49:43;28.10;99.90
33023;DHT22;19390;51.460;5.710;2023-07-20T11:52:14;26.40;99.90
33023;DHT22;19390;51.460;5.710;2023-07-20T11:54:41;27.80;99.90
33023;DHT22;19390;51.460;5.710;2023-07-20T11:57:07;28.30;99.90
33023;DHT22;19390;51.460;5.710;2023-07-20T11:59:33;27.00;99.90
33023;DHT22;19390;51.460;5.710;2023-07-20T12:02:01;26.20;99.90
33023;DHT22;19390;51.460;5.710;2023-07-20T12:04:27;26.10;99.90
33023;DHT22;19390;51.460;5.710;2023-07-20T12:06:54;26.50;99.90
33023;DHT22;19390;51.460;5.710;2023-07-20T12:09:20;26.40;99.90
33023;DHT22;19390;51.460;5.710;2023-07-20T12:11:49;25.70;99.90
33023;DHT22;19390;51.460;5.710;2023-07-20T12:14:15;25.50;99.90
33023;DHT22;19390;51.460;5.710;2023-07-20T12:16:40;25.30;99.90
33023;DHT22;19390;51.460;5.710;2023-07-20T12:19:13;26.20;99.90
33023;DHT22;19390;51.460;5.710;2023-07-20T12:21:40;28.80;99.90
33023;DHT22;19390;51.460;5.710;2023-07-20T12:24:07;29.90;99.90
33023;DHT22;19390;51.460;5.710;2023-07-20T12:26:34;30.80;99.90
33023;DHT22;19390;51.460;5.710;2023-07-20T12:29:00;30.10;99.90
33023;DHT22;19390;51.460;5.710;2023-07-20T12:31:27;28.60;99.90
33023;DHT22;19390;51.460;5.710;2023-07-20T12:33:54;27.30;99.90
33023;DHT22;19390;51.460;5.710;2023-07-20T12:36:22;27.50;99.90
33023;DHT22;19390;51.460;5.710;2023-07-20T12:38:48;27.40;99.90
33023;DHT22;19390;51.460;5.710;2023-07-20T12:41:14;28.30;99.90
33023;DHT22;19390;51.460;5.710;2023-07-20T12:43:46;27.60;99.90
33023;DHT22;19390;51.460;5.710;2023-07-20T12:46:12;27.60;99.90
33023;DHT22;19390;51.460;5.710;2023-07-20T12:48:39;28.70;99.90
33023;DHT22;19390;51.460;5.710;2023-07-20T12:51:08;27.30;99.90
33023;DHT22;19390;51.460;5.710;2023-07-20T12:53:34;26.70;99.90
33023;DHT22;19390;51.460;5.710;2023-07-20T12:56:00;26.30;99.90
33023;DHT22;19390;51.460;5.710;2023-07-20T12:58:26;26.40;99.90
33023;DHT22;19390;51.460;5.710;2023-07-20T13:00:52;27.00;99.90
33023;DHT22;19390;51.460;5.710;2023-07-20T13:03:18;25.70;99.90
33023;DHT22;19390;51.460;5.710;2023-07-20T13:05:45;25.90;99.90
33023;DHT22;19390;51.460;5.710;2023-07-20T13:08:10;24.40;99.90
33023;DHT22;19390;51.460;5.710;2023-07-20T13:10:37;25.20;99.90
33023;DHT22;19390;51.460;5.710;2023-07-20T13:13:04;25.20;99.90
33023;DHT22;19390;51.460;5.710;2023-07-20T13:15:40;24.90;99.90
33023;DHT22;19390;51.460;5.710;2023-07-20T13:18:06;24.70;99.90
33023;DHT22;19390;51.460;5.710;2023-07-20T13:20:31;24.70;99.90
33023;DHT22;19390;51.460;5.710;2023-07-20T13:22:57;24.60;99.90
33023;DHT22;19390;51.460;5.710;2023-07-20T13:25:24;24.90;99.90
33023;DHT22;19390;51.460;5.710;2023-07-20T13:27:49;25.00;99.90
33023;DHT22;19390;51.460;5.710;2023-07-20T13:30:15;24.60;99.90
33023;DHT22;19390;51.460;5.710;2023-07-20T13:32:45;24.80;99.90
33023;DHT22;19390;51.460;5.710;2023-07-20T13:35:11;25.60;99.90
33023;DHT22;19390;51.460;5.710;2023-07-20T13:37:37;26.20;99.90
33023;DHT22;19390;51.460;5.710;2023-07-20T13:40:03;26.80;99.90
33023;DHT22;19390;51.460;5.710;2023-07-20T13:42:31;26.80;99.90
33023;DHT22;19390;51.460;5.710;2023-07-20T13:44:57;27.30;99.90
33023;DHT22;19390;51.460;5.710;2023-07-20T13:47:22;29.10;99.90
33023;DHT22;19390;51.460;5.710;2023-07-20T13:49:48;29.30;99.90
33023;DHT22;19390;51.460;5.710;2023-07-20T13:52:14;28.50;99.90
33023;DHT22;19390;51.460;5.710;2023-07-20T13:54:40;27.30;99.90
33023;DHT22;19390;51.460;5.710;2023-07-20T13:57:05;27.50;99.90
33023;DHT22;19390;51.460;5.710;2023-07-20T13:59:31;28.10;99.90
33023;DHT22;19390;51.460;5.710;2023-07-20T14:01:57;28.10;99.90
33023;DHT22;19390;51.460;5.710;2023-07-20T14:04:22;27.20;99.90
33023;DHT22;19390;51.460;5.710;2023-07-20T14:06:48;27.60;99.90
33023;DHT22;19390;51.460;5.710;2023-07-20T14:09:13;28.40;99.90
33023;DHT22;19390;51.460;5.710;2023-07-20T14:11:39;28.70;99.90
33023;DHT22;19390;51.460;5.710;2023-07-20T14:14:05;28.20;99.90
33023;DHT22;19390;51.460;5.710;2023-07-20T14:16:30;29.30;99.90
33023;DHT22;19390;51.460;5.710;2023-07-20T14:18:57;29.10;99.90
33023;DHT22;19390;51.460;5.710;2023-07-20T14:21:23;28.00;99.90
33023;DHT22;19390;51.460;5.710;2023-07-20T14:23:51;28.70;99.90
33023;DHT22;19390;51.460;5.710;2023-07-20T14:26:16;28.10;99.90
33023;DHT22;19390;51.460;5.710;2023-07-20T14:28:42;27.30;99.90
33023;DHT22;19390;51.460;5.710;2023-07-20T14:31:08;27.20;99.90
33023;DHT22;19390;51.460;5.710;2023-07-20T14:33:34;27.30;99.90
33023;DHT22;19390;51.460;5.710;2023-07-20T14:35:59;26.90;99.90
33023;DHT22;19390;51.460;5.710;2023-07-20T14:38:33;26.30;99.90
33023;DHT22;19390;51.460;5.710;2023-07-20T14:40:59;26.30;99.90
33023;DHT22;19390;51.460;5.710;2023-07-20T14:43:25;25.90;99.90
33023;DHT22;19390;51.460;5.710;2023-07-20T14:45:50;26.30;99.90
33023;DHT22;19390;51.460;5.710;2023-07-20T14:48:16;26.50;99.90
33023;DHT22;19390;51.460;5.710;2023-07-20T14:50:42;26.30;99.90
33023;DHT22;19390;51.460;5.710;2023-07-20T14:53:11;26.70;99.90
33023;DHT22;19390;51.460;5.710;2023-07-20T14:55:37;27.10;99.90
33023;DHT22;19390;51.460;5.710;2023-07-20T14:58:02;27.40;99.90
33023;DHT22;19390;51.460;5.710;2023-07-20T15:00:28;27.30;99.90
33023;DHT22;19390;51.460;5.710;2023-07-20T15:02:55;26.90;99.90
33023;DHT22;19390;51.460;5.710;2023-07-20T15:05:24;27.00;99.90
33023;DHT22;19390;51.460;5.710;2023-07-20T15:07:52;26.00;99.90
33023;DHT22;19390;51.460;5.710;2023-07-20T15:10:17;25.80;99.90
33023;DHT22;19390;51.460;5.710;2023-07-20T15:12:43;25.60;99.90
33023;DHT22;19390;51.460;5.710;2023-07-20T15:15:15;26.00;99.90
33023;DHT22;19390;51.460;5.710;2023-07-20T15:17:43;26.10;99.90
33023;DHT22;19390;51.460;5.710;2023-07-20T15:20:10;25.20;99.90
33023;DHT22;19390;51.460;5.710;2023-07-20T15:22:36;25.40;99.90
33023;DHT22;19390;51.460;5.710;2023-07-20T15:25:03;25.20;99.90
33023;DHT22;19390;51.460;5.710;2023-07-20T15:27:29;25.40;99.90
33023;DHT22;19390;51.460;5.710;2023-07-20T15:29:55;24.90;99.90
33023;DHT22;19390;51.460;5.710;2023-07-20T15:32:20;24.50;99.90
33023;DHT22;19390;51.460;5.710;2023-07-20T15:34:46;24.80;99.90
33023;DHT22;19390;51.460;5.710;2023-07-20T15:37:12;24.90;99.90
33023;DHT22;19390;51.460;5.710;2023-07-20T15:39:39;24.50;99.90